Time;durP1;ratioP1;P1;durP2;ratioP2;P2;SDS_P1;SDS_P2;PMS_P1;PMS_P2;Temp;Humidity;BMP_temperature;BMP_pressure;BME280_temperature;BME280_humidity;BME280_pressure;Samples;Min_cycle;Max_cycle;Signal;HPM_P1;HPM_P2
2022/01/31 00:02:04;;;;;;;14.32;3.03;;;11.90;99.90;;;;;;5030584;28;20365;-68
2022/01/31 00:04:30;;;;;;;19.10;3.58;;;11.90;99.90;;;;;;5030270;28;20080;-70
2022/01/31 00:06:57;;;;;;;17.50;4.20;;;11.90;99.90;;;;;;5030439;28;20037;-69
2022/01/31 00:09:24;;;;;;;15.05;3.40;;;11.90;99.90;;;;;;5030249;28;20029;-68
2022/01/31 00:11:59;;;;;;;8.50;2.95;;;11.80;99.90;;;;;;5030299;28;20097;-68
2022/01/31 00:14:39;;;;;;;14.32;2.70;;;11.80;99.90;;;;;;5033767;28;20022;-67
2022/01/31 00:17:07;;;;;;;14.05;4.05;;;11.90;99.90;;;;;;5015859;28;20033;-68
2022/01/31 00:19:35;;;;;;;15.98;3.53;;;11.80;99.90;;;;;;5033816;28;20026;-68
2022/01/31 00:22:03;;;;;;;21.60;3.78;;;11.80;99.90;;;;;;5033609;28;20061;-69
2022/01/31 00:24:29;;;;;;;14.48;3.55;;;11.90;99.90;;;;;;5033811;28;20082;-68
2022/01/31 00:26:55;;;;;;;16.10;3.60;;;11.90;99.90;;;;;;5033614;28;20478;-68
2022/01/31 00:29:21;;;;;;;14.20;3.13;;;11.90;99.90;;;;;;5033673;28;20561;-68
2022/01/31 00:31:47;;;;;;;20.50;4.10;;;11.90;99.90;;;;;;5033907;28;20429;-68
2022/01/31 00:34:13;;;;;;;17.80;3.47;;;11.80;99.90;;;;;;5033500;28;20037;-67
2022/01/31 00:36:39;;;;;;;11.63;3.13;;;11.80;99.90;;;;;;5033478;28;20061;-68
2022/01/31 00:39:06;;;;;;;16.60;3.67;;;11.80;99.90;;;;;;5033783;28;20354;-68
2022/01/31 00:41:32;;;;;;;11.75;3.40;;;11.70;99.90;;;;;;5033175;28;20276;-68
2022/01/31 00:44:02;;;;;;;17.93;3.33;;;11.70;99.90;;;;;;5015276;28;20021;-68
2022/01/31 00:46:40;;;;;;;12.50;3.10;;;11.70;99.90;;;;;;5015521;28;20288;-64
2022/01/31 00:49:12;;;;;;;14.98;4.00;;;11.70;99.90;;;;;;5033648;28;20053;-68
2022/01/31 00:51:38;;;;;;;10.95;3.38;;;11.70;99.90;;;;;;5015808;28;20030;-69
2022/01/31 00:54:04;;;;;;;17.65;3.47;;;11.80;99.90;;;;;;5033523;28;20025;-67
2022/01/31 00:56:30;;;;;;;15.75;3.80;;;11.70;99.90;;;;;;5033004;28;20030;-68
2022/01/31 00:58:56;;;;;;;14.52;3.13;;;11.70;99.90;;;;;;5033557;28;20079;-67
2022/01/31 01:01:22;;;;;;;16.58;3.50;;;11.70;99.90;;;;;;5032941;28;20330;-67
2022/01/31 01:03:48;;;;;;;19.85;3.40;;;11.70;99.90;;;;;;5014535;28;20049;-68
2022/01/31 01:06:15;;;;;;;14.90;3.37;;;11.60;99.90;;;;;;5032530;28;20124;-68
2022/01/31 01:08:41;;;;;;;23.10;3.95;;;11.70;99.90;;;;;;5032279;28;20764;-66
2022/01/31 01:11:07;;;;;;;15.50;3.70;;;11.60;99.90;;;;;;5032064;28;20017;-68
2022/01/31 01:13:33;;;;;;;14.50;4.20;;;11.60;99.90;;;;;;5014773;28;20029;-69
2022/01/31 01:15:59;;;;;;;18.13;3.47;;;11.60;99.90;;;;;;5032319;28;20338;-67
2022/01/31 01:18:25;;;;;;;20.10;3.53;;;11.50;99.90;;;;;;5032360;28;20037;-67
2022/01/31 01:20:51;;;;;;;16.45;3.90;;;11.50;99.90;;;;;;5032091;28;20505;-68
2022/01/31 01:23:17;;;;;;;16.80;3.50;;;11.50;99.90;;;;;;5032094;28;20030;-69
2022/01/31 01:25:43;;;;;;;16.33;3.50;;;11.40;99.90;;;;;;5030898;28;20103;-68
2022/01/31 01:28:09;;;;;;;12.03;2.80;;;11.40;99.90;;;;;;5031959;28;20496;-69
2022/01/31 01:30:35;;;;;;;22.67;4.67;;;11.40;99.90;;;;;;5031716;28;20026;-67
2022/01/31 01:33:17;;;;;;;13.45;3.17;;;11.40;99.90;;;;;;5032251;28;20021;-67
2022/01/31 01:35:43;;;;;;;15.25;3.80;;;11.40;99.90;;;;;;5032106;28;20018;-68
2022/01/31 01:38:10;;;;;;;18.80;3.05;;;11.40;99.90;;;;;;5031693;28;20034;-70
2022/01/31 01:40:40;;;;;;;20.38;3.75;;;11.30;99.90;;;;;;5031513;28;20099;-67
2022/01/31 01:43:06;;;;;;;16.98;3.40;;;11.40;99.90;;;;;;5032023;28;20034;-68
2022/01/31 01:45:33;;;;;;;14.43;3.30;;;11.50;99.90;;;;;;5031590;28;20028;-68
2022/01/31 01:47:59;;;;;;;14.65;3.20;;;11.50;99.90;;;;;;5031445;28;20037;-67
2022/01/31 01:50:26;;;;;;;14.02;3.55;;;11.50;99.90;;;;;;5031626;28;20121;-69
2022/01/31 01:52:53;;;;;;;12.98;3.20;;;11.50;99.90;;;;;;5031984;28;20028;-68
2022/01/31 01:55:19;;;;;;;;;;;11.50;99.90;;;;;;5032026;28;20025;-68
2022/01/31 01:57:45;;;;;;;16.15;3.47;;;11.50;99.90;;;;;;5013278;28;19962;-66
2022/01/31 02:00:49;;;;;;;15.32;3.45;;;11.50;99.90;;;;;;5031171;28;20057;-69
2022/01/31 02:03:18;;;;;;;15.15;3.33;;;11.50;99.90;;;;;;5031024;28;20521;-68
2022/01/31 02:05:45;;;;;;;15.10;3.83;;;11.50;99.90;;;;;;5031217;28;20088;-67
2022/01/31 02:08:17;;;;;;;17.42;3.72;;;11.60;99.90;;;;;;5031267;28;20444;-68
2022/01/31 02:10:43;;;;;;;16.13;3.20;;;11.60;99.90;;;;;;5031475;28;20075;-70
2022/01/31 02:13:10;;;;;;;22.90;4.45;;;11.60;99.90;;;;;;5031359;28;20021;-68
2022/01/31 02:15:38;;;;;;;21.27;4.00;;;11.60;99.90;;;;;;5031033;28;20108;-69
2022/01/31 02:18:05;;;;;;;23.55;3.70;;;11.60;99.90;;;;;;5030792;28;20029;-67
2022/01/31 02:20:31;;;;;;;17.73;3.37;;;11.60;99.90;;;;;;5031116;28;20379;-68
2022/01/31 02:22:58;;;;;;;19.65;3.78;;;11.70;99.90;;;;;;5030717;28;20275;-68
2022/01/31 02:25:24;;;;;;;13.38;3.15;;;11.60;99.90;;;;;;5013294;28;20347;-69
2022/01/31 02:27:50;;;;;;;21.98;3.55;;;11.60;99.90;;;;;;5030869;28;20064;-68
2022/01/31 02:30:17;;;;;;;17.58;3.67;;;11.60;99.90;;;;;;5031019;28;20414;-68
2022/01/31 02:32:45;;;;;;;15.25;3.42;;;11.50;99.90;;;;;;5030885;28;20454;-68
2022/01/31 02:35:11;;;;;;;17.70;3.45;;;11.60;99.90;;;;;;5030710;28;20445;-70
2022/01/31 02:37:38;;;;;;;14.38;3.38;;;11.60;99.90;;;;;;5030953;28;20017;-68
2022/01/31 02:40:05;;;;;;;20.63;3.63;;;11.60;99.90;;;;;;5030578;28;20057;-70
2022/01/31 02:42:31;;;;;;;19.25;3.35;;;11.50;99.90;;;;;;5030473;28;20034;-67
2022/01/31 02:44:57;;;;;;;20.00;3.30;;;11.50;99.90;;;;;;5012630;28;20059;-68
2022/01/31 02:47:29;;;;;;;23.50;4.00;;;11.50;99.90;;;;;;5030668;28;20037;-68
2022/01/31 02:49:59;;;;;;;12.98;2.65;;;11.40;99.90;;;;;;5030837;28;20501;-68
2022/01/31 02:52:29;;;;;;;16.08;3.63;;;11.40;99.90;;;;;;5030894;28;20115;-68
2022/01/31 02:54:55;;;;;;;17.55;3.53;;;11.40;99.90;;;;;;5031002;28;20029;-69
2022/01/31 02:57:22;;;;;;;22.23;3.23;;;11.40;99.90;;;;;;5030638;28;20029;-68
2022/01/31 02:59:48;;;;;;;15.70;2.97;;;11.30;99.90;;;;;;5030701;28;20303;-68
2022/01/31 03:02:14;;;;;;;18.30;3.58;;;11.30;99.90;;;;;;5012305;28;20021;-68
2022/01/31 03:04:40;;;;;;;14.70;3.70;;;11.30;99.90;;;;;;5030088;28;20118;-67
2022/01/31 03:07:06;;;;;;;22.88;3.78;;;11.30;99.90;;;;;;5030792;28;20037;-69
2022/01/31 03:09:32;;;;;;;15.37;3.67;;;11.30;99.90;;;;;;5012907;28;20021;-68
2022/01/31 03:12:02;;;;;;;13.85;3.10;;;11.30;99.90;;;;;;5012811;28;20049;-68
2022/01/31 03:14:28;;;;;;;12.18;3.50;;;11.30;99.90;;;;;;5030645;28;20025;-68
2022/01/31 03:16:54;;;;;;;16.80;2.90;;;11.30;99.90;;;;;;5030289;28;20116;-69
2022/01/31 03:19:20;;;;;;;22.02;3.50;;;11.30;99.90;;;;;;5030602;28;20343;-68
2022/01/31 03:21:47;;;;;;;12.60;2.88;;;11.30;99.90;;;;;;5030273;28;20107;-68
2022/01/31 03:24:13;;;;;;;19.05;3.58;;;11.30;99.90;;;;;;5012272;28;20450;-68
2022/01/31 03:26:41;;;;;;;19.13;2.92;;;11.30;99.90;;;;;;5029846;28;20022;-69
2022/01/31 03:29:08;;;;;;;16.13;2.90;;;11.20;99.90;;;;;;5030333;28;20048;-69
2022/01/31 03:31:33;;;;;;;;;;;11.20;99.90;;;;;;5012972;28;20462;-68
2022/01/31 03:34:00;;;;;;;17.35;3.40;;;11.20;99.90;;;;;;5030022;28;19905;-68
2022/01/31 03:36:26;;;;;;;14.90;3.42;;;11.20;99.90;;;;;;5029997;28;20033;-67
2022/01/31 03:38:53;;;;;;;11.80;2.83;;;11.30;99.90;;;;;;5011960;28;20495;-68
2022/01/31 03:41:21;;;;;;;19.20;2.85;;;11.30;99.90;;;;;;5029894;28;20272;-68
2022/01/31 03:43:47;;;;;;;10.57;2.83;;;11.30;99.90;;;;;;5030795;28;20022;-68
2022/01/31 03:46:14;;;;;;;17.75;3.25;;;11.30;99.90;;;;;;5030292;28;20508;-68
2022/01/31 03:48:44;;;;;;;11.23;2.88;;;11.30;99.90;;;;;;5031938;28;20382;-68
2022/01/31 03:51:10;;;;;;;17.40;2.92;;;11.40;99.90;;;;;;5033258;28;20029;-68
2022/01/31 03:53:36;;;;;;;14.65;2.45;;;11.50;99.90;;;;;;5034113;28;20143;-68
2022/01/31 03:56:02;;;;;;;17.13;3.55;;;11.50;99.90;;;;;;5034376;28;20108;-69
2022/01/31 03:58:28;;;;;;;14.10;2.70;;;11.40;99.90;;;;;;5034587;28;20029;-68
2022/01/31 04:00:54;;;;;;;19.77;3.10;;;11.50;99.90;;;;;;5034052;28;20080;-68
2022/01/31 04:03:20;;;;;;;13.32;2.55;;;11.50;99.90;;;;;;5034510;28;20284;-68
2022/01/31 04:05:46;;;;;;;7.63;2.17;;;11.60;99.90;;;;;;5034682;28;20057;-68
2022/01/31 04:08:12;;;;;;;12.68;2.40;;;11.60;99.90;;;;;;5035041;28;20030;-68
2022/01/31 04:10:40;;;;;;;7.68;2.85;;;11.50;99.90;;;;;;5034958;28;20026;-67
2022/01/31 04:13:06;;;;;;;11.27;2.30;;;11.60;99.90;;;;;;5034846;28;20398;-68
2022/01/31 04:15:36;;;;;;;13.20;2.65;;;11.60;99.90;;;;;;5035085;28;20029;-68
2022/01/31 04:18:03;;;;;;;9.93;2.25;;;11.70;99.90;;;;;;5034580;28;20044;-68
2022/01/31 04:20:29;;;;;;;;;;;11.70;99.90;;;;;;5034694;28;20109;-68
2022/01/31 04:23:03;;;;;;;13.93;2.93;;;11.70;99.90;;;;;;5034564;28;19944;-68
2022/01/31 04:25:41;;;;;;;11.98;2.30;;;11.60;99.90;;;;;;5034178;28;20029;-69
2022/01/31 04:28:16;;;;;;;11.88;3.00;;;11.60;99.90;;;;;;5034450;28;20045;-67
2022/01/31 04:30:52;;;;;;;9.40;2.35;;;11.60;99.90;;;;;;5035533;28;20407;-67
2022/01/31 04:33:19;;;;;;;9.73;2.35;;;11.60;99.90;;;;;;5035389;28;20101;-68
2022/01/31 04:35:45;;;;;;;9.82;2.28;;;11.60;99.90;;;;;;5035243;28;20041;-69
2022/01/31 04:38:12;;;;;;;12.80;2.78;;;11.60;99.90;;;;;;5035177;28;20025;-68
2022/01/31 04:40:38;;;;;;;11.70;2.33;;;11.60;99.90;;;;;;5034903;28;20025;-69
2022/01/31 04:43:04;;;;;;;11.32;2.17;;;11.70;99.90;;;;;;5034789;28;20264;-68
2022/01/31 04:45:30;;;;;;;12.67;2.50;;;11.70;99.90;;;;;;5035124;28;20510;-68
2022/01/31 04:47:56;;;;;;;10.25;2.47;;;11.70;99.90;;;;;;5034873;28;20048;-68
2022/01/31 04:50:22;;;;;;;9.73;2.30;;;11.70;99.90;;;;;;5034690;28;20053;-68
2022/01/31 04:52:48;;;;;;;7.90;2.63;;;11.80;99.90;;;;;;5035217;28;20048;-68
2022/01/31 04:55:14;;;;;;;12.50;3.25;;;11.80;99.90;;;;;;5034675;28;20295;-68
2022/01/31 04:57:41;;;;;;;11.13;2.53;;;11.80;99.90;;;;;;5034700;28;20053;-68
2022/01/31 05:00:09;;;;;;;16.92;3.20;;;11.90;99.90;;;;;;5034318;28;20025;-68
2022/01/31 05:02:36;;;;;;;8.95;2.15;;;11.80;99.90;;;;;;5016642;28;20079;-67
2022/01/31 05:05:03;;;;;;;15.13;2.53;;;11.80;99.90;;;;;;5034374;28;20057;-68
2022/01/31 05:07:30;;;;;;;11.55;2.45;;;11.80;99.90;;;;;;5034580;28;20038;-67
2022/01/31 05:09:56;;;;;;;10.15;2.03;;;11.80;99.90;;;;;;5034080;28;20052;-68
2022/01/31 05:12:24;;;;;;;12.25;2.70;;;11.80;99.90;;;;;;5034295;28;20034;-68
2022/01/31 05:14:50;;;;;;;14.60;2.58;;;11.70;99.90;;;;;;5016159;28;20084;-68
2022/01/31 05:17:16;;;;;;;12.35;2.13;;;11.70;99.90;;;;;;5034398;28;20026;-67
2022/01/31 05:19:42;;;;;;;11.15;2.25;;;11.70;99.90;;;;;;5035092;28;20111;-68
2022/01/31 05:22:08;;;;;;;12.23;2.25;;;11.60;99.90;;;;;;5034858;28;20071;-66
2022/01/31 05:24:35;;;;;;;14.07;2.42;;;11.70;99.90;;;;;;5034743;28;20020;-67
2022/01/31 05:27:01;;;;;;;13.88;2.50;;;11.60;99.90;;;;;;5034818;28;20037;-67
2022/01/31 05:29:27;;;;;;;10.93;2.93;;;11.60;99.90;;;;;;5034185;28;20033;-66
2022/01/31 05:31:53;;;;;;;20.02;3.70;;;11.60;99.90;;;;;;5016215;28;20482;-67
2022/01/31 05:34:20;;;;;;;10.43;2.57;;;11.60;99.90;;;;;;5034213;28;20017;-68
2022/01/31 05:36:46;;;;;;;;;;;11.60;99.90;;;;;;5034409;28;20101;-68
2022/01/31 05:39:12;;;;;;;14.02;2.80;;;11.70;99.90;;;;;;5033952;28;19905;-68
2022/01/31 05:41:38;;;;;;;18.35;3.17;;;11.70;99.90;;;;;;5034074;28;20033;-68
2022/01/31 05:44:04;;;;;;;13.63;2.65;;;11.70;99.90;;;;;;5033809;28;20022;-68
2022/01/31 05:46:30;;;;;;;8.77;2.00;;;11.70;99.90;;;;;;5015901;28;20085;-67
2022/01/31 05:48:56;;;;;;;14.82;2.97;;;11.80;99.90;;;;;;5033737;28;20057;-69
2022/01/31 05:51:23;;;;;;;16.50;3.57;;;11.80;99.90;;;;;;5034145;28;20021;-67
2022/01/31 05:53:50;;;;;;;10.45;2.25;;;11.80;99.90;;;;;;5033815;28;20022;-68
2022/01/31 05:56:17;;;;;;;;;;;11.80;99.90;;;;;;5033873;28;20033;-66
2022/01/31 05:58:43;;;;;;;;;;;11.80;99.90;;;;;;5016000;28;19976;-68
2022/01/31 06:01:09;;;;;;;16.52;2.83;;;11.80;99.90;;;;;;5033284;28;19987;-67
2022/01/31 06:03:37;;;;;;;12.20;2.60;;;11.80;99.90;;;;;;5033139;28;20061;-67
2022/01/31 06:06:04;;;;;;;18.15;3.03;;;11.90;99.90;;;;;;5033808;28;20029;-67
2022/01/31 06:08:30;;;;;;;17.75;4.45;;;11.80;99.90;;;;;;5033646;28;20052;-68
2022/01/31 06:10:57;;;;;;;18.97;3.37;;;11.80;99.90;;;;;;5032988;28;20469;-68
2022/01/31 06:13:25;;;;;;;11.93;3.17;;;11.70;99.90;;;;;;5033122;28;20396;-68
2022/01/31 06:15:52;;;;;;;22.42;2.90;;;11.70;99.90;;;;;;5033232;28;20024;-69
2022/01/31 06:18:19;;;;;;;17.77;2.90;;;11.80;99.90;;;;;;5033256;28;20058;-66
2022/01/31 06:20:45;;;;;;;17.00;3.28;;;11.80;99.90;;;;;;5033497;28;20474;-69
2022/01/31 06:23:12;;;;;;;22.70;2.97;;;11.70;99.90;;;;;;5033675;28;20116;-68
2022/01/31 06:25:38;;;;;;;15.57;2.95;;;11.70;99.90;;;;;;5033329;28;20025;-67
2022/01/31 06:28:06;;;;;;;15.27;3.08;;;11.70;99.90;;;;;;5033157;28;20037;-68
2022/01/31 06:30:33;;;;;;;12.55;2.67;;;11.80;99.90;;;;;;5032128;28;20489;-68
2022/01/31 06:32:59;;;;;;;14.40;2.85;;;11.80;99.90;;;;;;5032519;28;20021;-67
2022/01/31 06:35:26;;;;;;;17.48;3.10;;;11.80;99.90;;;;;;5032648;28;20033;-69
2022/01/31 06:37:52;;;;;;;16.75;3.20;;;11.90;99.90;;;;;;5014970;28;20025;-68
2022/01/31 06:40:19;;;;;;;19.35;3.13;;;11.90;99.90;;;;;;5032364;28;20030;-70
2022/01/31 06:42:45;;;;;;;16.77;3.28;;;11.90;99.90;;;;;;5032287;28;20025;-68
2022/01/31 06:45:12;;;;;;;17.10;3.47;;;11.90;99.90;;;;;;5032606;28;20111;-67
2022/01/31 06:47:38;;;;;;;15.20;3.08;;;11.90;99.90;;;;;;5031837;28;20307;-69
2022/01/31 06:50:06;;;;;;;16.63;2.97;;;12.00;99.90;;;;;;5013623;28;20017;-68
2022/01/31 06:52:35;;;;;;;16.92;3.22;;;12.00;99.90;;;;;;5013371;28;20032;-68
2022/01/31 06:55:05;;;;;;;13.98;2.92;;;12.00;99.90;;;;;;5031180;28;20015;-68
2022/01/31 06:57:36;;;;;;;17.85;2.90;;;11.90;99.90;;;;;;5012884;28;20041;-71
2022/01/31 07:00:06;;;;;;;17.60;3.03;;;11.90;99.90;;;;;;5031293;28;20029;-68
2022/01/31 07:02:32;;;;;;;13.57;2.90;;;12.00;99.90;;;;;;5031014;28;20030;-68
2022/01/31 07:05:00;;;;;;;14.82;2.70;;;11.90;99.90;;;;;;5030911;28;20041;-70
2022/01/31 07:07:27;;;;;;;23.15;3.33;;;11.90;99.90;;;;;;5031573;28;20068;-68
2022/01/31 07:09:54;;;;;;;19.95;3.08;;;11.90;99.90;;;;;;5031486;28;20474;-69
2022/01/31 07:12:24;;;;;;;20.98;3.63;;;11.90;99.90;;;;;;5031593;28;20072;-69
2022/01/31 07:14:50;;;;;;;16.88;3.13;;;11.90;99.90;;;;;;5013605;28;20017;-70
2022/01/31 07:17:16;;;;;;;18.15;2.97;;;11.90;99.90;;;;;;5031998;28;20036;-67
2022/01/31 07:19:43;;;;;;;12.50;2.70;;;11.80;99.90;;;;;;5032107;28;20071;-70
2022/01/31 07:22:12;;;;;;;11.63;2.70;;;11.90;99.90;;;;;;5031998;28;20474;-67
2022/01/31 07:27:05;;;;;;;20.58;3.63;;;12.00;99.90;;;;;;5036447;28;20371;-69
2022/01/31 07:29:31;;;;;;;20.60;4.07;;;12.10;99.90;;;;;;5036760;28;20374;-68
2022/01/31 07:31:58;;;;;;;16.98;3.50;;;12.10;99.90;;;;;;5018470;28;20478;-68
2022/01/31 07:34:25;;;;;;;10.68;2.55;;;12.10;99.90;;;;;;5036677;28;20152;-69
2022/01/31 07:36:52;;;;;;;21.35;2.67;;;12.10;99.90;;;;;;5036215;28;20094;-69
2022/01/31 07:39:19;;;;;;;14.52;3.42;;;12.20;99.90;;;;;;5035583;28;20029;-69
2022/01/31 07:41:46;;;;;;;;;;;12.10;99.90;;;;;;5035966;28;20477;-69
2022/01/31 07:44:12;;;;;;;;;;;12.10;99.90;;;;;;5036142;28;20094;-71
2022/01/31 07:46:38;;;;;;;14.15;2.97;;;12.10;99.90;;;;;;5035717;28;19960;-70
2022/01/31 07:49:06;;;;;;;10.20;2.53;;;12.20;99.90;;;;;;5036014;28;20028;-70
2022/01/31 07:51:34;;;;;;;17.58;2.92;;;12.30;99.90;;;;;;5035671;28;20075;-73
2022/01/31 07:54:00;;;;;;;11.20;3.20;;;12.40;99.90;;;;;;5017598;28;20073;-73
2022/01/31 07:56:26;;;;;;;17.05;2.90;;;12.50;99.90;;;;;;5035340;28;20072;-67
2022/01/31 07:58:53;;;;;;;12.73;3.00;;;12.70;99.90;;;;;;5015644;28;20018;-71
2022/01/31 08:01:19;;;;;;;16.02;2.95;;;12.90;99.90;;;;;;5015247;28;20061;-71
2022/01/31 08:03:45;;;;;;;15.40;2.97;;;13.10;99.90;;;;;;5015638;28;20045;-70
2022/01/31 08:06:12;;;;;;;14.18;2.50;;;13.20;99.90;;;;;;4998064;28;20026;-71
2022/01/31 08:08:38;;;;;;;13.32;2.95;;;13.50;99.90;;;;;;5016085;28;20024;-71
2022/01/31 08:11:05;;;;;;;15.83;2.77;;;14.10;99.90;;;;;;5015673;28;20030;-69
2022/01/31 08:13:31;;;;;;;;;;;14.60;99.90;;;;;;5016187;28;20037;-70
2022/01/31 08:16:03;;;;;;;13.73;3.05;;;15.00;99.90;;;;;;5015238;28;19951;-71
2022/01/31 08:18:30;;;;;;;21.65;3.30;;;15.40;99.90;;;;;;5015600;28;20030;-73
2022/01/31 08:20:56;;;;;;;11.48;2.50;;;15.70;99.90;;;;;;5015408;28;20026;-71
2022/01/31 08:23:22;;;;;;;14.27;3.30;;;16.00;99.90;;;;;;5015401;28;20030;-72
2022/01/31 08:25:49;;;;;;;16.08;2.63;;;16.30;99.90;;;;;;5015660;28;20095;-72
2022/01/31 08:28:27;;;;;;;11.60;2.47;;;16.40;99.90;;;;;;5015054;28;20034;-71
2022/01/31 08:31:01;;;;;;;12.02;2.20;;;16.50;99.90;;;;;;5016276;28;20141;-69
2022/01/31 08:33:42;;;;;;;13.75;2.75;;;16.50;99.90;;;;;;5014346;28;20086;-69
2022/01/31 08:36:09;;;;;;;11.43;2.58;;;16.60;99.90;;;;;;5015396;28;20021;-70
2022/01/31 08:38:38;;;;;;;11.05;2.45;;;16.50;99.90;;;;;;5015749;28;20045;-70
2022/01/31 08:41:05;;;;;;;12.82;2.70;;;16.20;99.90;;;;;;5015123;28;20053;-72
2022/01/31 08:43:33;;;;;;;11.45;2.45;;;16.30;99.90;;;;;;5015111;28;20446;-72
2022/01/31 08:46:00;;;;;;;15.73;3.10;;;16.40;99.90;;;;;;5015261;28;20419;-71
2022/01/31 08:48:27;;;;;;;16.00;3.42;;;16.70;99.90;;;;;;5015255;28;20435;-72
2022/01/31 08:50:54;;;;;;;11.13;2.97;;;17.00;99.90;;;;;;5014917;28;20029;-72
2022/01/31 08:53:21;;;;;;;11.43;2.83;;;17.00;99.90;;;;;;5014940;28;20077;-74
2022/01/31 08:55:52;;;;;;;12.75;2.58;;;16.80;99.90;;;;;;5014547;28;20070;-71
2022/01/31 08:58:19;;;;;;;13.13;2.47;;;16.40;99.90;;;;;;4996846;28;20141;-72
2022/01/31 09:00:49;;;;;;;;;;;16.00;99.90;;;;;;5015208;28;20360;-72
2022/01/31 09:05:42;;;;;;;13.40;2.55;;;16.00;99.90;;;;;;5015065;28;20026;-72
2022/01/31 09:08:08;;;;;;;16.92;2.90;;;16.00;99.90;;;;;;5014772;28;20400;-71
2022/01/31 09:10:35;;;;;;;17.17;3.20;;;16.20;99.90;;;;;;5014298;28;20044;-71
2022/01/31 09:13:01;;;;;;;23.42;4.03;;;16.50;99.90;;;;;;5014199;28;20026;-71
2022/01/31 09:15:27;;;;;;;14.40;2.55;;;16.60;99.90;;;;;;5014187;28;20030;-70
2022/01/31 09:17:53;;;;;;;15.63;3.13;;;16.30;99.90;;;;;;5014389;28;20022;-71
2022/01/31 09:20:20;;;;;;;12.45;2.92;;;16.70;99.90;;;;;;5012970;28;20063;-72
2022/01/31 09:22:46;;;;;;;11.68;2.88;;;16.90;99.90;;;;;;5014117;28;20514;-72
2022/01/31 09:25:14;;;;;;;10.55;2.20;;;17.00;99.90;;;;;;5015019;28;20030;-71
2022/01/31 09:27:41;;;;;;;11.43;2.67;;;17.00;99.90;;;;;;5014857;28;20034;-72
2022/01/31 09:30:09;;;;;;;11.82;2.47;;;17.30;99.90;;;;;;5014078;28;20054;-70
2022/01/31 09:32:36;;;;;;;15.82;3.00;;;16.90;99.90;;;;;;5014404;28;20132;-71
2022/01/31 09:35:03;;;;;;;10.35;2.60;;;16.90;99.90;;;;;;5014087;28;20022;-71
2022/01/31 09:37:29;;;;;;;;;;;16.80;99.90;;;;;;5014205;28;20052;-71
2022/01/31 09:40:02;;;;;;;18.30;3.00;;;16.60;99.90;;;;;;4996165;28;20271;-70
2022/01/31 09:42:41;;;;;;;11.27;2.20;;;16.40;99.90;;;;;;5013591;28;20033;-71
2022/01/31 09:45:15;;;;;;;9.98;2.60;;;16.60;99.90;;;;;;5012713;28;20026;-70
2022/01/31 09:48:43;;;;;;;14.40;2.85;;;16.60;99.90;;;;;;5013422;28;20501;-70
2022/01/31 09:50:36;;;;;;;11.75;2.83;;;16.40;99.90;;;;;;4996020;28;20100;-71
2022/01/31 09:53:02;;;;;;;13.10;2.17;;;16.00;99.90;;;;;;5019517;28;20037;-70
2022/01/31 09:55:30;;;;;;;17.13;3.38;;;15.90;99.90;;;;;;5014633;28;20068;-71
2022/01/31 09:57:56;;;;;;;15.27;2.75;;;15.90;99.90;;;;;;5032846;28;20207;-71
2022/01/31 10:00:31;;;;;;;17.30;3.20;;;15.70;99.90;;;;;;5032853;28;20082;-70
2022/01/31 10:03:07;;;;;;;12.35;2.58;;;15.60;99.90;;;;;;5032735;28;20366;-70
2022/01/31 10:05:33;;;;;;;10.95;2.90;;;15.50;99.90;;;;;;5032762;28;20029;-71
2022/01/31 10:08:10;;;;;;;16.00;3.22;;;15.50;99.90;;;;;;5032436;28;20037;-72
2022/01/31 10:10:43;;;;;;;14.65;2.80;;;15.60;99.90;;;;;;5032907;28;20183;-71
2022/01/31 10:16:26;;;;;;;10.77;2.60;;;15.70;99.90;;;;;;5032479;28;20111;-72
2022/01/31 10:19:07;;;;;;;12.38;3.05;;;15.70;99.90;;;;;;5032381;28;20485;-71
2022/01/31 10:22:03;;;;;;;14.75;3.15;;;15.60;99.90;;;;;;5032234;28;20031;-71
2022/01/31 10:24:31;;;;;;;14.18;3.00;;;15.70;99.90;;;;;;5032065;28;20014;-72
2022/01/31 10:27:05;;;;;;;19.58;3.33;;;15.80;99.90;;;;;;5032351;28;20033;-72
2022/01/31 10:29:31;;;;;;;15.88;3.40;;;15.80;99.90;;;;;;5014690;28;20443;-73
2022/01/31 10:32:03;;;;;;;15.07;2.80;;;15.50;99.90;;;;;;5032280;28;20393;-69
2022/01/31 10:34:40;;;;;;;14.30;2.97;;;15.30;99.90;;;;;;5031583;28;20025;-71
2022/01/31 10:37:13;;;;;;;12.32;3.20;;;15.30;99.90;;;;;;5031949;28;20505;-71
2022/01/31 10:53:48;;;;;;;12.25;2.50;;;15.70;99.90;;;;;;5031358;28;20519;-70
2022/01/31 10:56:14;;;;;;;18.33;3.28;;;15.90;99.90;;;;;;5030738;28;20060;-71
2022/01/31 10:58:57;;;;;;;16.67;2.90;;;16.10;99.90;;;;;;5030891;28;20027;-71
2022/01/31 11:01:24;;;;;;;15.15;3.15;;;16.00;99.90;;;;;;5031054;28;20351;-70
2022/01/31 11:03:50;;;;;;;;;;;16.20;99.90;;;;;;5030489;28;20072;-70
2022/01/31 11:06:17;;;;;;;25.45;2.90;;;16.10;99.90;;;;;;5030657;28;19919;-72
2022/01/31 11:08:43;;;;;;;15.38;2.88;;;15.90;99.90;;;;;;5031207;28;20496;-71
2022/01/31 11:11:09;;;;;;;11.27;2.67;;;15.60;99.90;;;;;;5012896;28;20028;-71
2022/01/31 11:13:37;;;;;;;14.90;3.10;;;15.40;99.90;;;;;;5030905;28;20071;-71
2022/01/31 11:16:05;;;;;;;17.45;3.47;;;15.30;99.90;;;;;;5012687;28;20268;-69
2022/01/31 11:18:33;;;;;;;15.43;3.40;;;15.20;99.90;;;;;;5031184;28;20125;-71
2022/01/31 11:21:05;;;;;;;14.23;2.63;;;15.10;99.90;;;;;;5030888;28;20096;-70
2022/01/31 11:23:37;;;;;;;20.80;3.20;;;15.00;99.90;;;;;;5031329;28;20029;-70
2022/01/31 11:26:06;;;;;;;18.77;2.85;;;15.00;99.90;;;;;;5030656;28;20022;-71
2022/01/31 11:28:35;;;;;;;20.75;2.90;;;14.90;99.90;;;;;;5031220;28;20036;-71
2022/01/31 11:31:02;;;;;;;20.25;3.45;;;15.10;99.90;;;;;;5031328;28;20022;-71
2022/01/31 11:33:29;;;;;;;12.48;2.97;;;15.60;99.90;;;;;;5031219;28;20065;-71
2022/01/31 11:35:55;;;;;;;14.85;2.80;;;15.70;99.90;;;;;;5031164;28;20034;-66
2022/01/31 11:38:22;;;;;;;26.77;4.45;;;16.10;99.90;;;;;;5030841;28;20048;-70
2022/01/31 11:40:50;;;;;;;13.52;2.80;;;16.40;99.90;;;;;;5031348;28;20061;-71
2022/01/31 11:43:17;;;;;;;18.42;3.03;;;16.40;99.90;;;;;;5032069;28;20025;-71
2022/01/31 11:45:46;;;;;;;16.95;2.67;;;16.50;99.90;;;;;;5031693;28;20097;-71
2022/01/31 11:48:23;;;;;;;17.02;3.13;;;16.40;99.90;;;;;;5031277;28;20029;-70
2022/01/31 11:50:54;;;;;;;14.85;2.92;;;16.60;99.90;;;;;;5031072;28;20041;-70
2022/01/31 11:53:34;;;;;;;18.77;3.45;;;16.60;99.90;;;;;;5032349;28;20426;-70
2022/01/31 11:56:03;;;;;;;20.33;3.42;;;16.40;99.90;;;;;;5031963;28;20347;-67
2022/01/31 11:58:34;;;;;;;22.50;3.22;;;16.40;99.90;;;;;;5031525;28;20032;-71
2022/01/31 12:01:02;;;;;;;14.90;2.67;;;16.30;99.90;;;;;;5031323;28;20132;-72
2022/01/31 12:03:28;;;;;;;19.50;3.20;;;16.40;99.90;;;;;;5031047;28;20041;-70
2022/01/31 12:05:55;;;;;;;17.00;3.40;;;16.40;99.90;;;;;;5031221;28;20109;-67
2022/01/31 12:08:35;;;;;;;19.83;3.47;;;16.50;99.90;;;;;;5013547;28;20030;-71
2022/01/31 12:11:16;;;;;;;18.45;3.65;;;16.70;99.90;;;;;;5017024;28;20462;-71
2022/01/31 12:13:49;;;;;;;18.90;3.28;;;16.60;99.90;;;;;;5034918;28;20033;-72
2022/01/31 12:17:10;;;;;;;13.45;3.60;;;16.60;99.90;;;;;;5033958;28;20018;-70
2022/01/31 12:22:09;;;;;;;20.23;3.20;;;16.00;99.90;;;;;;5035292;28;20486;-71
2022/01/31 12:24:38;;;;;;;12.68;2.85;;;15.90;99.90;;;;;;5035044;28;20421;-71
2022/01/31 12:27:13;;;;;;;16.15;3.55;;;16.10;99.90;;;;;;5035370;28;20033;-71
2022/01/31 12:29:48;;;;;;;20.27;4.13;;;16.40;99.90;;;;;;5034715;28;20420;-71
2022/01/31 12:32:31;;;;;;;21.73;3.10;;;16.70;99.90;;;;;;5034690;28;20092;-70
2022/01/31 12:35:06;;;;;;;13.60;3.28;;;16.50;99.90;;;;;;5035513;28;20014;-71
2022/01/31 12:37:41;;;;;;;16.48;3.72;;;16.50;99.90;;;;;;5035646;28;20065;-70
2022/01/31 12:40:15;;;;;;;18.13;3.63;;;16.30;99.90;;;;;;5035299;28;20046;-70
2022/01/31 12:43:07;;;;;;;16.70;3.50;;;16.00;99.90;;;;;;5035048;28;20083;-71
2022/01/31 12:45:40;;;;;;;20.75;3.60;;;15.60;99.90;;;;;;5034672;28;20071;-70
2022/01/31 12:48:09;;;;;;;15.48;3.60;;;15.30;99.90;;;;;;5027820;28;20037;-70
2022/01/31 12:50:59;;;;;;;24.38;3.58;;;15.20;99.90;;;;;;5034825;28;20150;-70
2022/01/31 12:53:36;;;;;;;22.50;3.70;;;15.10;99.90;;;;;;5034531;28;20041;-69
2022/01/31 12:56:12;;;;;;;17.80;3.92;;;15.30;99.90;;;;;;5016429;28;20040;-69
2022/01/31 12:58:46;;;;;;;21.98;3.85;;;15.30;99.90;;;;;;5034855;28;20084;-70
2022/01/31 13:01:27;;;;;;;15.30;3.58;;;15.20;99.90;;;;;;5034388;28;20039;-72
2022/01/31 13:04:17;;;;;;;18.10;3.50;;;15.10;99.90;;;;;;5033893;28;20087;-73
2022/01/31 13:06:52;;;;;;;16.05;3.78;;;15.10;99.90;;;;;;5034244;28;20080;-71
2022/01/31 13:09:25;;;;;;;22.00;4.03;;;15.00;99.90;;;;;;5034329;28;20017;-72
2022/01/31 13:12:05;;;;;;;14.60;3.22;;;14.90;99.90;;;;;;5034975;28;20025;-72
2022/01/31 13:14:37;;;;;;;18.73;3.78;;;14.70;99.90;;;;;;5034072;28;20033;-71